Time;durP1;ratioP1;P1;durP2;ratioP2;P2;SDS_P1;SDS_P2;PMS_P1;PMS_P2;Temp;Humidity;BMP_temperature;BMP_pressure;BME280_temperature;BME280_humidity;BME280_pressure;Samples;Min_cycle;Max_cycle;Signal;HPM_P1;HPM_P2
2023/01/20 00:01:32;;;;;;;3.58;0.93;;;-2.70;82.30;;;;;;4977927;28;89471;-71
2023/01/20 00:03:58;;;;;;;4.25;1.05;;;-2.70;82.40;;;;;;4976531;28;88561;-71
2023/01/20 00:06:26;;;;;;;4.88;1.00;;;-2.70;82.60;;;;;;4973441;28;87081;-71
2023/01/20 00:08:54;;;;;;;4.35;1.05;;;-2.80;82.60;;;;;;4975414;28;88167;-72
2023/01/20 00:11:20;;;;;;;5.63;0.90;;;-2.80;82.70;;;;;;4983370;28;88142;-72
2023/01/20 00:13:45;;;;;;;4.07;1.10;;;-2.80;82.30;;;;;;4997793;28;88230;-72
2023/01/20 00:16:12;;;;;;;3.35;0.73;;;-2.90;82.50;;;;;;4979303;28;87539;-71
2023/01/20 00:18:38;;;;;;;3.70;0.77;;;-2.90;82.90;;;;;;4979715;28;87825;-71
2023/01/20 00:21:10;;;;;;;5.40;1.13;;;-2.90;82.90;;;;;;4980306;28;89953;-72
2023/01/20 00:23:36;;;;;;;4.97;0.95;;;-2.90;83.30;;;;;;4973378;28;88750;-71
2023/01/20 00:26:11;;;;;;;3.70;1.20;;;-3.00;83.50;;;;;;4980847;28;87256;-72
2023/01/20 00:28:37;;;;;;;3.83;1.10;;;-3.00;84.10;;;;;;4980200;28;87352;-71
2023/01/20 00:31:17;;;;;;;3.67;1.10;;;-3.00;84.60;;;;;;4984745;28;88070;-71
2023/01/20 00:33:43;;;;;;;6.18;1.35;;;-3.00;84.70;;;;;;4980866;28;88929;-71
2023/01/20 00:36:10;;;;;;;6.32;1.60;;;-3.00;84.90;;;;;;4990629;28;87359;-73
2023/01/20 00:38:36;;;;;;;6.20;1.38;;;-2.90;85.00;;;;;;4975020;28;86769;-70
2023/01/20 00:41:01;;;;;;;5.68;1.35;;;-3.00;85.00;;;;;;4978782;28;88036;-70
2023/01/20 00:43:27;;;;;;;5.63;1.58;;;-3.00;84.70;;;;;;4973091;28;88665;-70
2023/01/20 00:45:53;;;;;;;6.45;1.63;;;-2.90;84.70;;;;;;4981123;28;88330;-70
2023/01/20 00:48:19;;;;;;;3.13;1.10;;;-2.90;84.60;;;;;;4997404;28;87418;-72
2023/01/20 00:50:44;;;;;;;5.30;1.27;;;-2.90;84.60;;;;;;4978944;28;87484;-70
2023/01/20 00:53:10;;;;;;;5.78;1.85;;;-2.90;84.60;;;;;;4973692;28;87875;-69
2023/01/20 00:55:36;;;;;;;4.32;1.33;;;-2.90;84.70;;;;;;4981928;28;87356;-70
2023/01/20 00:58:19;;;;;;;7.88;1.60;;;-3.00;84.80;;;;;;4942571;28;87903;-71
2023/01/20 01:00:50;;;;;;;6.03;1.52;;;-3.00;85.00;;;;;;4973819;28;88153;-71
2023/01/20 01:03:16;;;;;;;5.78;1.80;;;-3.00;85.10;;;;;;4978942;28;87813;-71
2023/01/20 01:05:41;;;;;;;8.00;1.75;;;-3.10;85.20;;;;;;4985116;28;87370;-71
2023/01/20 01:08:07;;;;;;;7.85;1.60;;;-3.10;85.30;;;;;;4996534;28;86985;-71
2023/01/20 01:10:33;;;;;;;6.20;1.73;;;-3.10;85.20;;;;;;4968758;28;89225;-73
2023/01/20 01:13:00;;;;;;;6.28;1.98;;;-3.10;85.10;;;;;;4971747;28;89241;-71
2023/01/20 01:15:26;;;;;;;5.70;1.90;;;-3.00;84.80;;;;;;4985309;28;88778;-71
2023/01/20 01:17:52;;;;;;;9.25;2.22;;;-3.00;85.40;;;;;;4976980;28;87501;-71
2023/01/20 01:20:18;;;;;;;5.13;1.33;;;-2.90;84.90;;;;;;4970373;28;87603;-71
2023/01/20 01:22:44;;;;;;;6.50;2.08;;;-2.90;84.90;;;;;;4982217;28;87778;-71
2023/01/20 01:25:09;;;;;;;5.95;1.83;;;-2.90;85.00;;;;;;4973886;28;87353;-72
2023/01/20 01:27:36;;;;;;;5.10;1.52;;;-2.90;85.60;;;;;;4973487;28;86888;-72
2023/01/20 01:30:02;;;;;;;7.95;1.55;;;-2.90;84.80;;;;;;4962469;28;88066;-72
2023/01/20 01:32:28;;;;;;;3.80;1.00;;;-3.00;84.60;;;;;;4973921;28;90102;-69
2023/01/20 01:34:54;;;;;;;3.75;1.17;;;-3.10;84.70;;;;;;4981414;28;88356;-69
2023/01/20 01:37:19;;;;;;;6.15;1.00;;;-3.10;84.70;;;;;;4978458;28;87582;-70
2023/01/20 01:39:45;;;;;;;2.90;0.98;;;-3.10;85.00;;;;;;4977847;28;88296;-69
2023/01/20 01:42:17;;;;;;;3.08;0.90;;;-3.20;85.10;;;;;;4977847;28;87594;-70
2023/01/20 01:45:10;;;;;;;3.42;0.90;;;-3.20;85.10;;;;;;4968428;28;87371;-70
2023/01/20 01:47:54;;;;;;;2.92;0.65;;;-3.20;84.70;;;;;;4977841;28;87236;-71
2023/01/20 01:50:49;;;;;;;2.80;0.80;;;-3.20;83.60;;;;;;4969674;28;88207;-71
2023/01/20 01:53:15;;;;;;;4.03;0.70;;;-3.10;83.20;;;;;;4976045;28;86808;-70
2023/01/20 01:55:46;;;;;;;4.15;0.70;;;-3.20;82.80;;;;;;4962579;28;87058;-71
2023/01/20 01:58:14;;;;;;;;;;;-3.10;83.00;;;;;;4972862;28;87293;-70
2023/01/20 02:00:40;;;;;;;6.20;1.13;;;-3.00;82.90;;;;;;4985164;28;89312;-70
2023/01/20 02:03:07;;;;;;;4.32;1.08;;;-3.00;82.60;;;;;;4965219;28;89065;-70
2023/01/20 02:05:34;;;;;;;3.75;1.00;;;-3.00;82.80;;;;;;4977188;28;87014;-70
2023/01/20 02:08:00;;;;;;;3.95;0.93;;;-3.00;83.20;;;;;;4967620;28;87511;-72
2023/01/20 02:10:25;;;;;;;5.05;1.10;;;-3.00;82.60;;;;;;4972649;28;88071;-71
2023/01/20 02:12:51;;;;;;;5.78;1.10;;;-2.90;82.40;;;;;;4986412;28;89295;-71
2023/01/20 02:15:23;;;;;;;4.35;1.10;;;-2.90;82.30;;;;;;4977690;28;87409;-72
2023/01/20 02:18:17;;;;;;;3.92;1.00;;;-3.00;82.40;;;;;;4976586;28;86815;-72
2023/01/20 02:20:55;;;;;;;4.07;1.05;;;-3.00;82.90;;;;;;4972863;28;87597;-73
2023/01/20 02:23:58;;;;;;;4.18;0.73;;;-3.00;82.50;;;;;;4975722;28;87631;-73
2023/01/20 02:26:41;;;;;;;3.22;1.00;;;-3.00;82.40;;;;;;4959812;28;88442;-73
2023/01/20 02:29:26;;;;;;;4.32;1.33;;;-3.00;82.40;;;;;;4969532;28;87425;-73
2023/01/20 02:32:07;;;;;;;4.28;1.00;;;-3.00;82.70;;;;;;4975011;28;88662;-72
2023/01/20 02:34:35;;;;;;;6.10;1.50;;;-3.10;83.20;;;;;;4970572;28;87441;-72
2023/01/20 02:37:14;;;;;;;5.45;1.15;;;-2.90;83.40;;;;;;4975334;28;87066;-71
2023/01/20 02:40:12;;;;;;;5.97;1.80;;;-3.00;83.50;;;;;;4977843;28;87545;-71
2023/01/20 02:42:44;;;;;;;6.65;1.85;;;-3.00;83.50;;;;;;4975625;28;87949;-71
2023/01/20 02:45:24;;;;;;;6.07;2.00;;;-2.90;83.50;;;;;;4962617;28;87402;-71
2023/01/20 02:48:16;;;;;;;6.32;1.77;;;-2.90;83.50;;;;;;4988044;28;87233;-72
2023/01/20 02:50:54;;;;;;;5.50;1.40;;;-2.80;83.10;;;;;;4996244;28;87336;-72
2023/01/20 02:53:23;;;;;;;7.10;1.63;;;-2.70;82.90;;;;;;4974218;28;88880;-72
2023/01/20 02:55:52;;;;;;;3.88;1.45;;;-2.60;82.30;;;;;;4976511;28;88945;-72
2023/01/20 02:58:21;;;;;;;6.38;1.73;;;-2.60;82.20;;;;;;4975156;28;87552;-72
2023/01/20 03:00:52;;;;;;;5.38;1.75;;;-2.60;81.90;;;;;;4981546;28;87468;-71
2023/01/20 03:03:25;;;;;;;5.82;1.83;;;-2.50;81.60;;;;;;4967819;28;87721;-71
2023/01/20 03:05:57;;;;;;;7.25;1.40;;;-2.40;81.20;;;;;;4976635;28;87686;-71
2023/01/20 03:08:27;;;;;;;6.75;1.30;;;-2.40;80.90;;;;;;4976946;28;87401;-71
2023/01/20 03:10:55;;;;;;;5.88;1.80;;;-2.30;81.00;;;;;;4967955;28;86768;-70
2023/01/20 03:13:36;;;;;;;7.57;1.48;;;-2.30;80.70;;;;;;4979284;28;88216;-70
2023/01/20 03:16:13;;;;;;;6.13;1.98;;;-2.20;80.70;;;;;;4980282;28;87827;-69
2023/01/20 03:18:39;;;;;;;5.88;1.60;;;-2.20;80.20;;;;;;4979262;28;88579;-70
2023/01/20 03:21:07;;;;;;;7.15;1.50;;;-2.20;80.40;;;;;;4991248;28;88409;-70
2023/01/20 03:23:36;;;;;;;4.15;1.30;;;-2.10;80.30;;;;;;4982416;28;88618;-70
2023/01/20 03:26:06;;;;;;;5.15;1.50;;;-2.10;80.30;;;;;;4968587;28;88049;-71
2023/01/20 03:28:32;;;;;;;4.95;1.42;;;-2.20;80.40;;;;;;4979512;28;87620;-70
2023/01/20 03:31:00;;;;;;;5.15;1.30;;;-2.20;80.50;;;;;;4980451;28;87492;-70
2023/01/20 03:33:25;;;;;;;5.20;1.75;;;-2.20;80.90;;;;;;4979284;28;87864;-70
2023/01/20 03:35:53;;;;;;;5.60;1.60;;;-2.30;80.60;;;;;;4982197;28;87767;-70
2023/01/20 03:38:18;;;;;;;4.85;1.33;;;-2.30;80.80;;;;;;4979613;28;87484;-71
2023/01/20 03:41:17;;;;;;;3.75;1.20;;;-2.20;81.30;;;;;;4980321;28;87418;-70
2023/01/20 03:44:06;;;;;;;4.75;1.70;;;-2.20;80.80;;;;;;4977966;28;89041;-71
2023/01/20 03:46:50;;;;;;;6.25;1.92;;;-2.20;80.30;;;;;;4976227;28;88547;-71
2023/01/20 03:49:16;;;;;;;;;;;-2.00;79.70;;;;;;4976281;28;87571;-71
2023/01/20 03:52:00;;;;;;;4.72;1.17;;;-1.90;79.50;;;;;;4981910;28;87423;-71
2023/01/20 03:54:47;;;;;;;8.90;1.85;;;-1.90;78.80;;;;;;4979294;28;88137;-71
2023/01/20 03:57:18;;;;;;;6.43;1.90;;;-1.80;79.30;;;;;;4974074;28;87430;-71
2023/01/20 03:59:47;;;;;;;4.80;1.08;;;-1.70;78.80;;;;;;4984950;28;87104;-71
2023/01/20 04:02:13;;;;;;;3.42;1.27;;;-1.80;78.30;;;;;;4973482;28;87098;-71
2023/01/20 04:04:41;;;;;;;6.53;1.55;;;-1.70;78.00;;;;;;4969404;28;88822;-71
2023/01/20 04:07:12;;;;;;;6.07;1.45;;;-1.70;78.00;;;;;;4979262;28;87917;-72
2023/01/20 04:09:44;;;;;;;5.35;1.10;;;-1.70;77.50;;;;;;4984662;28;88079;-72
2023/01/20 04:12:10;;;;;;;4.43;1.48;;;-1.70;77.20;;;;;;4977932;28;87313;-71
2023/01/20 04:14:35;;;;;;;9.43;1.65;;;-1.70;77.50;;;;;;4978159;28;88082;-71
2023/01/20 04:17:03;;;;;;;4.70;1.67;;;-1.70;78.40;;;;;;4977893;28;87285;-71
2023/01/20 04:19:29;;;;;;;5.93;1.50;;;-1.70;78.30;;;;;;4978994;28;87562;-71
2023/01/20 04:22:10;;;;;;;5.38;1.67;;;-1.80;78.50;;;;;;4980194;28;87817;-71
2023/01/20 04:24:48;;;;;;;6.28;1.98;;;-1.90;78.20;;;;;;4991805;28;88426;-71
2023/01/20 04:27:14;;;;;;;6.55;1.77;;;-1.90;78.70;;;;;;4980380;28;87684;-70
2023/01/20 04:29:40;;;;;;;6.28;1.75;;;-2.10;79.30;;;;;;4980903;28;86982;-70
2023/01/20 04:32:06;;;;;;;5.70;1.90;;;-2.10;81.10;;;;;;4972173;28;87769;-70
2023/01/20 04:34:32;;;;;;;7.13;1.90;;;-2.10;80.80;;;;;;4969698;28;89133;-70
2023/01/20 04:36:58;;;;;;;5.82;2.00;;;-2.10;80.40;;;;;;4979942;28;88317;-70
2023/01/20 04:39:23;;;;;;;5.47;1.98;;;-2.10;80.60;;;;;;4978572;28;87393;-71
2023/01/20 04:41:49;;;;;;;6.75;1.80;;;-2.10;80.50;;;;;;4969905;28;87548;-70
2023/01/20 04:44:15;;;;;;;7.03;1.90;;;-2.10;81.00;;;;;;4963128;28;87589;-71
2023/01/20 04:46:41;;;;;;;4.57;1.38;;;-2.10;80.80;;;;;;4967714;28;88103;-70
2023/01/20 04:49:09;;;;;;;5.55;1.88;;;-2.00;80.60;;;;;;4984157;28;87395;-70
2023/01/20 04:51:34;;;;;;;5.93;1.60;;;-2.00;80.60;;;;;;4978201;28;87061;-70
2023/01/20 04:54:00;;;;;;;6.43;2.10;;;-2.00;81.20;;;;;;4978099;28;87770;-70
2023/01/20 04:56:26;;;;;;;5.78;1.58;;;-2.00;81.20;;;;;;4972952;28;88701;-71
2023/01/20 04:58:52;;;;;;;8.27;1.40;;;-2.00;80.60;;;;;;4964661;28;88446;-71
2023/01/20 05:01:18;;;;;;;5.13;1.83;;;-2.00;80.80;;;;;;4961120;28;88886;-71
2023/01/20 05:03:43;;;;;;;7.60;2.00;;;-2.00;81.10;;;;;;4984299;28;88346;-71
2023/01/20 05:06:10;;;;;;;7.85;2.15;;;-2.00;81.30;;;;;;4978205;28;87242;-70
2023/01/20 05:08:36;;;;;;;5.85;1.90;;;-2.00;81.50;;;;;;4976649;28;87490;-70
2023/01/20 05:11:02;;;;;;;5.72;2.05;;;-1.90;80.90;;;;;;4983566;28;87569;-70
2023/01/20 05:13:28;;;;;;;8.80;2.00;;;-1.90;80.80;;;;;;4979846;28;88373;-70
2023/01/20 05:15:54;;;;;;;4.97;1.77;;;-1.80;80.80;;;;;;4995870;28;87806;-70
2023/01/20 05:18:20;;;;;;;6.43;1.95;;;-1.80;80.60;;;;;;4979078;28;88031;-71
2023/01/20 05:20:49;;;;;;;5.57;1.90;;;-1.80;80.60;;;;;;4978517;28;87789;-71
2023/01/20 05:23:15;;;;;;;5.85;1.40;;;-1.70;81.00;;;;;;4977054;28;89420;-71
2023/01/20 05:25:41;;;;;;;5.90;1.70;;;-1.60;80.40;;;;;;4975152;28;88990;-69
2023/01/20 05:28:07;;;;;;;7.03;1.77;;;-1.50;79.40;;;;;;4970575;28;87366;-71
2023/01/20 05:30:33;;;;;;;6.50;1.65;;;-1.50;78.70;;;;;;4998637;28;87062;-70
2023/01/20 05:32:59;;;;;;;8.35;1.73;;;-1.50;79.10;;;;;;4997387;28;88145;-71
2023/01/20 05:35:25;;;;;;;8.07;1.73;;;-1.50;79.10;;;;;;4984188;28;89243;-70
2023/01/20 05:37:54;;;;;;;7.32;1.80;;;-1.50;78.80;;;;;;4978103;28;87430;-71
2023/01/20 05:40:20;;;;;;;11.68;1.65;;;-1.60;78.40;;;;;;4961457;28;86635;-70
2023/01/20 05:42:46;;;;;;;7.38;1.55;;;-1.60;78.80;;;;;;4986519;28;88093;-70
2023/01/20 05:45:12;;;;;;;4.93;1.60;;;-1.50;78.70;;;;;;4982454;28;88604;-70
2023/01/20 05:47:37;;;;;;;6.35;1.30;;;-1.60;78.30;;;;;;4971533;28;88535;-71
2023/01/20 05:50:04;;;;;;;5.88;1.80;;;-1.60;78.00;;;;;;4968267;28;88258;-70
2023/01/20 05:52:30;;;;;;;6.22;1.40;;;-1.60;78.00;;;;;;4962795;28;88317;-71
2023/01/20 05:54:55;;;;;;;4.70;1.38;;;-1.60;78.30;;;;;;4977447;28;87340;-71
2023/01/20 05:57:24;;;;;;;4.72;1.80;;;-1.60;77.70;;;;;;4969177;28;87419;-70
2023/01/20 05:59:51;;;;;;;4.97;1.60;;;-1.50;77.60;;;;;;4971432;28;87718;-71
2023/01/20 06:02:18;;;;;;;6.75;1.25;;;-1.50;76.80;;;;;;4974157;28;87626;-70
2023/01/20 06:04:47;;;;;;;7.88;1.33;;;-1.50;75.70;;;;;;4976350;28;86761;-71
2023/01/20 06:07:14;;;;;;;6.47;1.40;;;-1.50;75.80;;;;;;4947813;28;88063;-71
2023/01/20 06:09:39;;;;;;;9.57;1.25;;;-1.50;75.80;;;;;;4976142;28;87194;-70
2023/01/20 06:12:06;;;;;;;5.43;1.05;;;-1.50;75.30;;;;;;4970742;28;91267;-70
2023/01/20 06:14:31;;;;;;;4.53;1.10;;;-1.40;75.50;;;;;;4980863;28;91937;-72
2023/01/20 06:16:57;;;;;;;6.07;1.02;;;-1.40;73.90;;;;;;4972120;28;88509;-71
2023/01/20 06:19:23;;;;;;;6.15;1.20;;;-1.40;74.20;;;;;;4988416;28;87580;-70
2023/01/20 06:21:49;;;;;;;4.88;1.20;;;-1.40;74.20;;;;;;4970574;28;91380;-71
2023/01/20 06:24:14;;;;;;;7.65;1.40;;;-1.30;74.20;;;;;;4969431;28;91033;-71
2023/01/20 06:26:40;;;;;;;5.18;1.58;;;-1.20;73.90;;;;;;4968035;28;87165;-71
2023/01/20 06:29:06;;;;;;;7.20;1.27;;;-1.10;74.20;;;;;;4964103;28;86648;-70
2023/01/20 06:31:32;;;;;;;3.97;1.15;;;-1.10;74.00;;;;;;4965040;28;89493;-71
2023/01/20 06:33:58;;;;;;;6.30;1.45;;;-1.00;72.70;;;;;;4960141;28;91107;-71
2023/01/20 06:36:23;;;;;;;4.20;1.40;;;-1.00;73.50;;;;;;4966333;28;88541;-71
2023/01/20 06:38:49;;;;;;;3.42;1.00;;;-1.00;72.90;;;;;;4969653;28;87854;-70
2023/01/20 06:41:17;;;;;;;5.32;1.20;;;-1.00;71.90;;;;;;4966777;28;90859;-69
2023/01/20 06:43:43;;;;;;;4.35;1.15;;;-1.00;72.40;;;;;;4972585;28;91487;-70
2023/01/20 06:46:11;;;;;;;3.75;1.17;;;-1.10;71.40;;;;;;4973254;28;88104;-71
2023/01/20 06:48:37;;;;;;;4.50;1.33;;;-1.10;72.00;;;;;;4975960;28;87312;-73
2023/01/20 06:51:06;;;;;;;5.45;1.60;;;-1.00;72.00;;;;;;4970948;28;90056;-72
2023/01/20 06:53:31;;;;;;;4.57;1.27;;;-1.00;72.00;;;;;;4977415;28;91407;-70
2023/01/20 06:55:59;;;;;;;7.72;1.20;;;-1.00;72.80;;;;;;4992582;28;87208;-70
2023/01/20 06:58:27;;;;;;;4.22;1.08;;;-1.00;72.20;;;;;;4966778;28;87480;-71
2023/01/20 07:00:54;;;;;;;4.85;1.90;;;-0.90;71.90;;;;;;4975430;28;91174;-72
2023/01/20 07:03:19;;;;;;;4.28;1.42;;;-0.90;71.80;;;;;;4986542;28;88332;-70
2023/01/20 07:06:04;;;;;;;4.32;1.10;;;-0.80;71.70;;;;;;4990304;28;87621;-71
2023/01/20 07:08:30;;;;;;;4.13;1.30;;;-0.80;71.80;;;;;;4978603;28;87445;-72
2023/01/20 07:10:56;;;;;;;4.45;1.52;;;-0.80;71.70;;;;;;4999536;28;88136;-73
2023/01/20 07:13:21;;;;;;;13.77;1.52;;;-0.80;71.70;;;;;;4984241;28;88029;-73
2023/01/20 07:15:47;;;;;;;10.88;1.73;;;-0.80;71.30;;;;;;4989319;28;87488;-72
2023/01/20 07:18:13;;;;;;;6.85;1.00;;;-0.80;69.80;;;;;;4978920;28;87104;-72
2023/01/20 07:20:39;;;;;;;4.00;1.30;;;-0.80;69.90;;;;;;4993881;28;87593;-71
2023/01/20 07:23:05;;;;;;;4.15;1.25;;;-0.70;70.30;;;;;;4979001;28;87330;-70
2023/01/20 07:25:31;;;;;;;5.22;1.13;;;-0.60;70.10;;;;;;4984558;28;88553;-73
2023/01/20 07:27:56;;;;;;;4.07;1.00;;;-0.50;68.90;;;;;;4998983;28;87968;-73
2023/01/20 07:30:23;;;;;;;4.30;1.00;;;-0.40;68.10;;;;;;4998974;28;88579;-74
2023/01/20 07:32:49;;;;;;;3.58;1.27;;;-0.40;67.90;;;;;;4999522;28;87808;-71
2023/01/20 07:35:15;;;;;;;4.65;1.10;;;-0.50;68.10;;;;;;4991726;28;87518;-72
2023/01/20 07:37:40;;;;;;;4.63;1.02;;;-0.50;68.50;;;;;;5000165;28;87081;-72
2023/01/20 07:40:07;;;;;;;5.38;1.27;;;-0.50;67.70;;;;;;4989060;28;87081;-73
2023/01/20 07:42:37;;;;;;;4.68;1.17;;;-0.50;67.90;;;;;;4976326;28;87337;-73
2023/01/20 07:45:03;;;;;;;6.03;1.40;;;-0.50;68.50;;;;;;4984292;28;87547;-71
2023/01/20 07:47:28;;;;;;;4.10;0.98;;;-0.30;67.20;;;;;;4999551;28;87655;-71
2023/01/20 07:49:54;;;;;;;11.93;1.45;;;-0.20;67.30;;;;;;4998700;28;88642;-73
2023/01/20 07:52:20;;;;;;;4.00;1.23;;;0.20;67.80;;;;;;4989606;28;89515;-72
2023/01/20 07:54:45;;;;;;;11.48;1.25;;;0.60;67.00;;;;;;4972444;28;87452;-72
2023/01/20 07:57:11;;;;;;;8.60;1.75;;;0.80;65.80;;;;;;4971117;28;87414;-71
2023/01/20 07:59:37;;;;;;;5.32;1.40;;;0.90;64.90;;;;;;4984529;28;88184;-72
2023/01/20 08:02:02;;;;;;;6.30;1.73;;;1.50;64.60;;;;;;4976237;28;87898;-70
2023/01/20 08:04:28;;;;;;;18.02;1.45;;;1.80;63.10;;;;;;4982897;28;87687;-70
2023/01/20 08:06:54;;;;;;;5.43;1.67;;;1.70;62.80;;;;;;4979509;28;86707;-72
2023/01/20 08:09:19;;;;;;;5.85;2.00;;;1.40;63.40;;;;;;4979489;28;88157;-72
2023/01/20 08:11:45;;;;;;;8.70;1.98;;;1.00;65.00;;;;;;4978879;28;87882;-70
2023/01/20 08:14:11;;;;;;;6.18;2.10;;;0.70;66.70;;;;;;4984518;28;88231;-72
2023/01/20 08:16:37;;;;;;;5.00;1.38;;;0.50;67.60;;;;;;4971041;28;87540;-71
2023/01/20 08:19:02;;;;;;;6.88;2.40;;;0.40;68.30;;;;;;4966234;28;88607;-72
2023/01/20 08:21:30;;;;;;;12.50;1.92;;;0.30;68.90;;;;;;4965889;28;88089;-72
2023/01/20 08:24:01;;;;;;;12.05;2.92;;;0.30;68.80;;;;;;4979855;28;87208;-72
2023/01/20 08:26:28;;;;;;;5.50;1.95;;;0.10;69.70;;;;;;4989886;28;87965;-72
2023/01/20 08:28:55;;;;;;;7.85;1.90;;;0.00;70.30;;;;;;4981186;28;88036;-72
2023/01/20 08:31:23;;;;;;;7.10;1.85;;;0.00;71.00;;;;;;4967124;28;87412;-73
2023/01/20 08:33:52;;;;;;;13.85;2.20;;;-0.10;71.40;;;;;;4974453;28;87509;-73
2023/01/20 08:36:31;;;;;;;7.47;1.73;;;-0.10;71.60;;;;;;4978104;28;87365;-71
2023/01/20 08:38:58;;;;;;;12.18;2.25;;;-0.10;71.40;;;;;;4967500;28;89129;-73
2023/01/20 08:41:27;;;;;;;12.15;2.67;;;0.00;71.30;;;;;;4966707;28;89985;-74
2023/01/20 08:43:53;;;;;;;8.30;2.65;;;0.10;71.40;;;;;;4994455;28;89346;-72
2023/01/20 08:46:20;;;;;;;10.02;2.47;;;0.10;70.60;;;;;;4981152;28;87518;-73
2023/01/20 08:48:47;;;;;;;6.90;2.40;;;0.20;70.30;;;;;;4977506;28;87660;-73
2023/01/20 08:51:16;;;;;;;10.73;1.85;;;0.20;70.40;;;;;;4970448;28;87972;-72
2023/01/20 08:53:42;;;;;;;7.35;2.55;;;0.30;70.30;;;;;;4976891;28;87472;-74
2023/01/20 08:56:09;;;;;;;8.05;2.05;;;0.30;69.00;;;;;;4997754;28;86537;-74
2023/01/20 08:58:35;;;;;;;6.72;2.25;;;0.30;69.30;;;;;;4978261;28;89627;-73
2023/01/20 09:01:06;;;;;;;7.22;2.35;;;0.20;70.20;;;;;;4986987;28;87472;-73
2023/01/20 09:03:31;;;;;;;;;;;0.20;70.10;;;;;;4978348;28;89247;-72
2023/01/20 09:06:01;;;;;;;6.43;2.08;;;0.20;70.00;;;;;;4976445;28;87365;-73
2023/01/20 09:08:27;;;;;;;4.22;1.65;;;0.20;69.70;;;;;;4965388;28;87385;-72
2023/01/20 09:10:53;;;;;;;5.75;1.90;;;0.20;69.40;;;;;;4967571;28;87830;-74
2023/01/20 09:13:18;;;;;;;6.00;1.83;;;0.20;69.50;;;;;;4974583;28;87481;-73
2023/01/20 09:15:51;;;;;;;10.77;2.58;;;0.10;69.10;;;;;;4993698;28;87442;-73
2023/01/20 09:18:16;;;;;;;9.77;1.60;;;0.10;70.00;;;;;;4977501;28;89248;-72
2023/01/20 09:20:42;;;;;;;6.88;1.88;;;0.20;69.80;;;;;;4978048;28;88264;-70
2023/01/20 09:23:07;;;;;;;8.82;2.28;;;0.20;69.30;;;;;;4974157;28;87430;-71
2023/01/20 09:25:33;;;;;;;17.55;6.10;;;0.20;69.60;;;;;;4972608;28;87518;-71
2023/01/20 09:28:00;;;;;;;5.97;1.88;;;0.20;69.40;;;;;;4973200;28;89320;-71
2023/01/20 09:30:26;;;;;;;12.15;3.13;;;0.10;68.70;;;;;;4970765;28;89059;-70
2023/01/20 09:32:54;;;;;;;4.57;1.60;;;0.20;69.70;;;;;;4997184;28;87361;-71
2023/01/20 09:35:20;;;;;;;10.20;2.70;;;0.10;68.80;;;;;;4980421;28;88596;-71
2023/01/20 09:43:55;;;;;;;8.57;2.40;;;0.40;69.10;;;;;;4974621;28;87497;-70
2023/01/20 09:47:18;;;;;;;7.88;1.95;;;0.60;69.40;;;;;;4967698;28;86704;-71
2023/01/20 09:53:00;;;;;;;11.93;1.90;;;0.90;67.60;;;;;;4976129;28;87591;-70
2023/01/20 09:55:47;;;;;;;7.85;2.70;;;0.90;68.20;;;;;;4995257;28;88507;-71
2023/01/20 09:58:30;;;;;;;9.45;1.95;;;0.80;68.10;;;;;;4966575;28;87796;-72
2023/01/20 10:01:23;;;;;;;6.90;2.20;;;0.80;68.60;;;;;;4978112;28;88036;-73
2023/01/20 10:03:55;;;;;;;9.75;2.60;;;0.90;68.90;;;;;;4972889;28;89924;-73
2023/01/20 10:06:43;;;;;;;6.43;1.95;;;0.90;68.20;;;;;;4977532;28;87354;-72
2023/01/20 10:09:36;;;;;;;6.45;2.03;;;1.00;67.80;;;;;;4971238;28;87569;-72
2023/01/20 10:12:08;;;;;;;8.18;1.80;;;1.00;67.50;;;;;;4970415;28;88662;-72
2023/01/20 10:14:49;;;;;;;7.95;2.08;;;1.10;67.70;;;;;;4980365;28;87384;-72
2023/01/20 10:17:33;;;;;;;6.85;2.13;;;1.20;67.80;;;;;;4983844;28;87316;-73
2023/01/20 10:20:23;;;;;;;9.15;2.88;;;1.10;67.40;;;;;;4976611;28;87660;-72
2023/01/20 10:22:48;;;;;;;;;;;1.10;68.20;;;;;;4989224;28;89107;-72
2023/01/20 10:25:23;;;;;;;5.93;2.00;;;1.20;67.10;;;;;;5001740;28;87984;-72
2023/01/20 10:28:06;;;;;;;6.20;1.88;;;1.10;70.00;;;;;;4990255;28;88114;-72
2023/01/20 10:30:34;;;;;;;6.25;2.17;;;0.90;67.30;;;;;;4980275;28;87434;-72
2023/01/20 10:33:12;;;;;;;5.85;2.20;;;0.90;68.40;;;;;;4969450;28;89528;-72
2023/01/20 10:35:42;;;;;;;;;;;0.90;68.00;;;;;;4983116;28;87870;-72
2023/01/20 10:38:28;;;;;;;6.82;1.85;;;1.00;67.40;;;;;;5001852;28;87471;-72
2023/01/20 10:41:01;;;;;;;5.03;1.88;;;0.90;67.80;;;;;;4972267;28;86549;-71
2023/01/20 10:43:27;;;;;;;16.75;5.57;;;0.90;67.70;;;;;;4986233;28;88092;-72
2023/01/20 10:46:09;;;;;;;14.10;4.28;;;0.80;67.90;;;;;;4987237;28;87457;-72
2023/01/20 10:49:03;;;;;;;10.55;3.00;;;0.80;68.60;;;;;;4980499;28;88393;-72
2023/01/20 10:51:38;;;;;;;5.03;1.52;;;0.90;69.20;;;;;;4978903;28;87930;-73
2023/01/20 10:54:06;;;;;;;7.03;1.52;;;1.00;67.40;;;;;;4979212;28;87577;-70
2023/01/20 10:56:54;;;;;;;7.05;1.73;;;1.00;66.50;;;;;;4979359;28;87671;-71
2023/01/20 10:59:28;;;;;;;6.68;1.50;;;1.10;67.30;;;;;;4972214;28;87305;-70
2023/01/20 11:01:57;;;;;;;8.93;3.17;;;1.10;68.00;;;;;;4969599;28;88145;-70
2023/01/20 11:04:23;;;;;;;5.50;1.88;;;1.20;65.90;;;;;;4976304;28;87495;-71
2023/01/20 11:06:55;;;;;;;8.85;1.98;;;1.20;66.30;;;;;;4976903;28;87313;-72
2023/01/20 11:09:43;;;;;;;5.57;1.55;;;1.00;65.30;;;;;;4974092;28;87558;-72
2023/01/20 11:12:33;;;;;;;8.23;3.17;;;0.90;65.50;;;;;;4972053;28;87254;-72
2023/01/20 11:15:00;;;;;;;4.00;1.00;;;0.90;66.20;;;;;;4971786;28;88490;-72
2023/01/20 11:17:29;;;;;;;4.68;1.85;;;0.90;64.70;;;;;;4977459;28;88258;-72
2023/01/20 11:19:57;;;;;;;4.80;1.42;;;0.80;65.70;;;;;;4976106;28;87879;-72
2023/01/20 11:22:36;;;;;;;7.30;1.90;;;0.90;65.80;;;;;;4975976;28;87339;-72
2023/01/20 11:25:03;;;;;;;5.40;2.00;;;1.00;66.80;;;;;;4970420;28;87659;-72
2023/01/20 11:27:47;;;;;;;5.10;1.10;;;1.10;66.00;;;;;;4967080;28;87666;-72
2023/01/20 11:30:23;;;;;;;7.57;1.42;;;1.20;65.40;;;;;;4967240;28;88758;-72
2023/01/20 11:33:22;;;;;;;4.20;1.38;;;1.30;65.50;;;;;;4972754;28;88413;-72
2023/01/20 11:35:59;;;;;;;4.05;1.55;;;1.20;64.30;;;;;;4963850;28;89282;-72
2023/01/20 11:38:31;;;;;;;4.60;1.50;;;1.10;64.40;;;;;;4964262;28;88763;-72
2023/01/20 11:40:57;;;;;;;5.70;1.00;;;1.10;65.30;;;;;;4967885;28;88535;-72
2023/01/20 11:43:33;;;;;;;5.13;1.02;;;1.10;64.70;;;;;;4962249;28;89052;-72
2023/01/20 11:46:21;;;;;;;4.07;1.23;;;1.10;64.30;;;;;;4967334;28;88909;-72
2023/01/20 11:48:47;;;;;;;4.60;1.30;;;1.20;64.00;;;;;;4967280;28;87998;-72
2023/01/20 11:51:18;;;;;;;4.00;1.10;;;1.30;64.70;;;;;;4965346;28;88052;-72
2023/01/20 11:53:45;;;;;;;3.97;1.30;;;1.40;63.90;;;;;;4969192;28;87509;-72
2023/01/20 11:56:25;;;;;;;6.72;1.30;;;1.60;65.00;;;;;;4966895;28;87981;-72
2023/01/20 11:59:00;;;;;;;10.45;1.55;;;1.80;64.10;;;;;;4963226;28;87215;-72
2023/01/20 12:01:50;;;;;;;6.63;1.77;;;1.90;64.30;;;;;;4962559;28;89552;-72
2023/01/20 12:04:38;;;;;;;3.80;1.15;;;2.00;63.40;;;;;;4961327;28;87627;-72
2023/01/20 12:07:30;;;;;;;15.10;3.20;;;2.00;63.90;;;;;;4948295;28;90329;-72
2023/01/20 12:10:12;;;;;;;7.28;1.48;;;2.10;64.30;;;;;;4963903;28;88253;-72
2023/01/20 12:12:48;;;;;;;4.13;1.15;;;2.20;65.10;;;;;;4960184;28;89323;-72
2023/01/20 12:15:36;;;;;;;5.22;1.45;;;2.10;64.30;;;;;;4966142;28;87171;-73
2023/01/20 12:18:07;;;;;;;5.53;1.33;;;2.00;65.20;;;;;;4960613;28;88626;-72
2023/01/20 12:20:44;;;;;;;7.43;1.02;;;2.00;66.20;;;;;;4959173;28;89593;-72
2023/01/20 12:23:25;;;;;;;9.65;1.15;;;1.90;66.00;;;;;;4963198;28;89847;-72
2023/01/20 12:25:54;;;;;;;4.72;1.15;;;1.80;66.90;;;;;;4958932;28;87755;-74
2023/01/20 12:28:25;;;;;;;3.85;1.30;;;1.80;65.70;;;;;;4963092;28;88172;-72
2023/01/20 12:30:53;;;;;;;6.00;2.25;;;1.70;66.50;;;;;;4964329;28;89552;-73
2023/01/20 12:33:22;;;;;;;10.02;2.33;;;1.80;66.00;;;;;;4966525;28;88341;-72
2023/01/20 12:36:06;;;;;;;6.07;1.60;;;1.80;66.10;;;;;;4997294;28;87502;-73
2023/01/20 12:38:50;;;;;;;4.07;1.40;;;1.90;66.60;;;;;;4983314;28;88597;-73
2023/01/20 12:41:46;;;;;;;7.65;1.58;;;1.80;65.50;;;;;;4977372;28;88227;-73
2023/01/20 12:44:26;;;;;;;14.48;1.70;;;1.90;66.30;;;;;;4961189;28;87858;-73
2023/01/20 12:47:15;;;;;;;8.93;2.00;;;1.90;65.60;;;;;;4976888;28;89038;-71
2023/01/20 12:50:10;;;;;;;11.07;2.10;;;1.80;65.10;;;;;;4982758;28;87663;-72
2023/01/20 12:52:45;;;;;;;9.77;2.90;;;1.80;65.70;;;;;;4981883;28;87828;-72
2023/01/20 12:55:22;;;;;;;9.63;2.47;;;1.80;66.40;;;;;;4969215;28;87457;-72
2023/01/20 12:58:19;;;;;;;7.47;1.80;;;1.90;66.20;;;;;;4960375;28;87541;-72
2023/01/20 13:01:08;;;;;;;3.75;1.38;;;1.80;66.20;;;;;;4968968;28;89078;-72
2023/01/20 13:03:45;;;;;;;8.95;1.52;;;1.90;65.40;;;;;;4975160;28;88998;-72
2023/01/20 13:06:22;;;;;;;;;;;1.90;66.40;;;;;;4964105;28;87867;-73
2023/01/20 13:09:20;;;;;;;8.07;2.40;;;2.10;66.80;;;;;;4971189;28;89284;-72
2023/01/20 13:11:52;;;;;;;9.20;2.47;;;2.20;67.00;;;;;;4958050;28;88977;-72
2023/01/20 13:14:47;;;;;;;4.47;1.77;;;2.40;66.70;;;;;;4971060;28;87867;-71
2023/01/20 13:17:43;;;;;;;5.80;1.83;;;2.50;65.80;;;;;;4964680;28;87566;-73
2023/01/20 13:20:26;;;;;;;6.40;2.33;;;2.60;64.80;;;;;;4973387;28;86390;-71
2023/01/20 13:22:54;;;;;;;6.85;2.20;;;2.60;65.10;;;;;;4963533;28;87688;-71